sensor_id;sensor_type;location;lat;lon;timestamp;P1;durP1;ratioP1;P2;durP2;ratioP2
66371;SDS011;53168;51.146;17.120;2024-03-29T02:27:28;5.25;;;5.25;;
66371;SDS011;53168;51.146;17.120;2024-03-29T04:33:04;4.99;;;4.99;;
66371;SDS011;53168;51.146;17.120;2024-03-29T04:48:11;4.85;;;4.85;;
66371;SDS011;53168;51.146;17.120;2024-03-29T04:51:59;4.62;;;4.62;;
66371;SDS011;53168;51.146;17.120;2024-03-29T04:55:21;4.39;;;4.39;;
66371;SDS011;53168;51.146;17.120;2024-03-29T05:07:10;5.21;;;5.21;;
66371;SDS011;53168;51.146;17.120;2024-03-29T05:10:38;7.00;;;7.00;;
66371;SDS011;53168;51.146;17.120;2024-03-29T05:17:26;6.29;;;6.29;;
66371;SDS011;53168;51.146;17.120;2024-03-29T05:42:31;3.72;;;3.72;;
66371;SDS011;53168;51.146;17.120;2024-03-29T05:45:30;3.51;;;3.51;;
66371;SDS011;53168;51.146;17.120;2024-03-29T05:48:19;3.29;;;3.29;;
66371;SDS011;53168;51.146;17.120;2024-03-29T05:51:01;2.96;;;2.96;;
66371;SDS011;53168;51.146;17.120;2024-03-29T05:53:47;3.57;;;3.57;;
66371;SDS011;53168;51.146;17.120;2024-03-29T05:56:39;3.27;;;3.27;;
66371;SDS011;53168;51.146;17.120;2024-03-29T05:59:26;2.92;;;2.92;;
66371;SDS011;53168;51.146;17.120;2024-03-29T06:02:25;3.24;;;3.24;;
66371;SDS011;53168;51.146;17.120;2024-03-29T06:05:14;3.27;;;3.27;;
66371;SDS011;53168;51.146;17.120;2024-03-29T06:08:18;2.98;;;2.98;;
66371;SDS011;53168;51.146;17.120;2024-03-29T06:11:09;2.70;;;2.70;;
66371;SDS011;53168;51.146;17.120;2024-03-29T06:13:53;2.92;;;2.92;;
66371;SDS011;53168;51.146;17.120;2024-03-29T06:16:50;2.91;;;2.91;;
66371;SDS011;53168;51.146;17.120;2024-03-29T06:19:55;2.18;;;2.18;;
66371;SDS011;53168;51.146;17.120;2024-03-29T06:22:53;2.86;;;2.86;;
66371;SDS011;53168;51.146;17.120;2024-03-29T06:25:46;2.62;;;2.62;;
66371;SDS011;53168;51.146;17.120;2024-03-29T06:28:29;2.35;;;2.35;;
66371;SDS011;53168;51.146;17.120;2024-03-29T06:31:13;2.43;;;2.43;;
66371;SDS011;53168;51.146;17.120;2024-03-29T06:34:10;2.32;;;2.32;;
66371;SDS011;53168;51.146;17.120;2024-03-29T06:36:51;2.54;;;2.54;;
66371;SDS011;53168;51.146;17.120;2024-03-29T06:39:49;2.37;;;2.37;;
66371;SDS011;53168;51.146;17.120;2024-03-29T06:57:32;1.89;;;1.89;;
66371;SDS011;53168;51.146;17.120;2024-03-29T07:11:29;1.91;;;1.90;;
66371;SDS011;53168;51.146;17.120;2024-03-29T07:14:29;1.93;;;1.92;;
66371;SDS011;53168;51.146;17.120;2024-03-29T07:17:47;1.88;;;1.88;;
66371;SDS011;53168;51.146;17.120;2024-03-29T07:29:02;1.48;;;1.46;;
66371;SDS011;53168;51.146;17.120;2024-03-29T07:51:19;1.44;;;1.40;;
66371;SDS011;53168;51.146;17.120;2024-03-29T08:02:26;1.27;;;1.21;;
66371;SDS011;53168;51.146;17.120;2024-03-29T08:40:34;1.12;;;1.08;;
66371;SDS011;53168;51.146;17.120;2024-03-29T08:43:25;1.01;;;0.99;;
66371;SDS011;53168;51.146;17.120;2024-03-29T08:46:01;1.09;;;1.06;;
66371;SDS011;53168;51.146;17.120;2024-03-29T08:48:50;1.03;;;1.02;;
66371;SDS011;53168;51.146;17.120;2024-03-29T08:51:30;0.86;;;0.85;;
66371;SDS011;53168;51.146;17.120;2024-03-29T08:54:15;0.89;;;0.85;;
66371;SDS011;53168;51.146;17.120;2024-03-29T08:57:01;1.03;;;0.96;;
66371;SDS011;53168;51.146;17.120;2024-03-29T08:59:53;1.12;;;1.04;;
66371;SDS011;53168;51.146;17.120;2024-03-29T09:02:48;1.04;;;0.97;;
66371;SDS011;53168;51.146;17.120;2024-03-29T09:05:28;1.18;;;1.09;;
66371;SDS011;53168;51.146;17.120;2024-03-29T09:08:25;1.11;;;1.04;;
66371;SDS011;53168;51.146;17.120;2024-03-29T09:10:59;0.90;;;0.85;;
66371;SDS011;53168;51.146;17.120;2024-03-29T09:13:34;1.18;;;1.11;;
66371;SDS011;53168;51.146;17.120;2024-03-29T09:16:10;0.91;;;0.86;;
66371;SDS011;53168;51.146;17.120;2024-03-29T09:18:45;1.09;;;1.03;;
66371;SDS011;53168;51.146;17.120;2024-03-29T09:21:21;0.96;;;0.90;;
66371;SDS011;53168;51.146;17.120;2024-03-29T09:24:01;0.98;;;0.91;;
66371;SDS011;53168;51.146;17.120;2024-03-29T09:26:39;0.88;;;0.82;;
66371;SDS011;53168;51.146;17.120;2024-03-29T09:29:15;0.97;;;0.88;;
66371;SDS011;53168;51.146;17.120;2024-03-29T09:31:50;1.05;;;0.96;;
66371;SDS011;53168;51.146;17.120;2024-03-29T09:34:24;1.00;;;0.91;;
66371;SDS011;53168;51.146;17.120;2024-03-29T09:36:58;1.01;;;0.92;;
66371;SDS011;53168;51.146;17.120;2024-03-29T09:39:34;0.87;;;0.78;;
66371;SDS011;53168;51.146;17.120;2024-03-29T09:42:14;0.86;;;0.76;;
66371;SDS011;53168;51.146;17.120;2024-03-29T09:44:53;0.84;;;0.75;;
66371;SDS011;53168;51.146;17.120;2024-03-29T09:47:31;0.82;;;0.73;;
66371;SDS011;53168;51.146;17.120;2024-03-29T09:50:09;0.91;;;0.81;;
66371;SDS011;53168;51.146;17.120;2024-03-29T09:52:44;0.95;;;0.86;;
66371;SDS011;53168;51.146;17.120;2024-03-29T09:55:22;0.89;;;0.79;;
66371;SDS011;53168;51.146;17.120;2024-03-29T09:57:58;1.15;;;1.02;;
66371;SDS011;53168;51.146;17.120;2024-03-29T10:00:33;0.83;;;0.72;;
66371;SDS011;53168;51.146;17.120;2024-03-29T10:03:06;0.90;;;0.78;;
66371;SDS011;53168;51.146;17.120;2024-03-29T10:05:50;1.04;;;0.90;;
66371;SDS011;53168;51.146;17.120;2024-03-29T10:08:25;1.02;;;0.88;;
66371;SDS011;53168;51.146;17.120;2024-03-29T10:11:01;1.11;;;0.94;;
66371;SDS011;53168;51.146;17.120;2024-03-29T10:13:36;4.24;;;3.69;;
66371;SDS011;53168;51.146;17.120;2024-03-29T10:16:12;1.22;;;1.13;;
66371;SDS011;53168;51.146;17.120;2024-03-29T10:18:50;0.86;;;0.79;;
66371;SDS011;53168;51.146;17.120;2024-03-29T10:21:25;0.74;;;0.68;;
66371;SDS011;53168;51.146;17.120;2024-03-29T10:24:00;0.77;;;0.72;;
66371;SDS011;53168;51.146;17.120;2024-03-29T10:26:44;0.88;;;0.82;;
66371;SDS011;53168;51.146;17.120;2024-03-29T10:29:27;0.92;;;0.84;;
66371;SDS011;53168;51.146;17.120;2024-03-29T10:32:22;0.68;;;0.63;;
66371;SDS011;53168;51.146;17.120;2024-03-29T10:34:57;0.79;;;0.72;;
66371;SDS011;53168;51.146;17.120;2024-03-29T10:37:32;0.87;;;0.79;;
66371;SDS011;53168;51.146;17.120;2024-03-29T10:40:11;0.87;;;0.80;;
66371;SDS011;53168;51.146;17.120;2024-03-29T10:42:49;0.78;;;0.72;;
66371;SDS011;53168;51.146;17.120;2024-03-29T10:45:25;0.63;;;0.59;;
66371;SDS011;53168;51.146;17.120;2024-03-29T10:48:02;0.83;;;0.79;;
66371;SDS011;53168;51.146;17.120;2024-03-29T10:50:40;0.85;;;0.80;;
66371;SDS011;53168;51.146;17.120;2024-03-29T10:53:20;0.94;;;0.89;;
66371;SDS011;53168;51.146;17.120;2024-03-29T10:55:56;0.86;;;0.82;;
66371;SDS011;53168;51.146;17.120;2024-03-29T10:58:37;0.88;;;0.83;;
66371;SDS011;53168;51.146;17.120;2024-03-29T11:01:20;0.70;;;0.66;;
66371;SDS011;53168;51.146;17.120;2024-03-29T11:03:58;0.72;;;0.69;;
66371;SDS011;53168;51.146;17.120;2024-03-29T11:06:45;0.59;;;0.56;;
66371;SDS011;53168;51.146;17.120;2024-03-29T11:09:25;0.75;;;0.72;;
66371;SDS011;53168;51.146;17.120;2024-03-29T11:12:04;0.74;;;0.71;;
66371;SDS011;53168;51.146;17.120;2024-03-29T11:14:46;0.66;;;0.64;;
66371;SDS011;53168;51.146;17.120;2024-03-29T11:17:29;0.78;;;0.77;;
66371;SDS011;53168;51.146;17.120;2024-03-29T11:20:45;1.03;;;0.84;;
66371;SDS011;53168;51.146;17.120;2024-03-29T11:23:21;0.64;;;0.63;;
66371;SDS011;53168;51.146;17.120;2024-03-29T11:25:58;0.61;;;0.61;;
66371;SDS011;53168;51.146;17.120;2024-03-29T11:28:35;0.67;;;0.67;;
66371;SDS011;53168;51.146;17.120;2024-03-29T11:31:13;0.73;;;0.70;;
66371;SDS011;53168;51.146;17.120;2024-03-29T11:33:48;1.01;;;0.89;;
66371;SDS011;53168;51.146;17.120;2024-03-29T11:36:23;1.05;;;0.93;;
66371;SDS011;53168;51.146;17.120;2024-03-29T11:39:00;0.90;;;0.79;;
66371;SDS011;53168;51.146;17.120;2024-03-29T11:41:34;0.97;;;0.83;;
66371;SDS011;53168;51.146;17.120;2024-03-29T11:44:18;0.91;;;0.78;;
66371;SDS011;53168;51.146;17.120;2024-03-29T11:46:53;0.84;;;0.72;;
66371;SDS011;53168;51.146;17.120;2024-03-29T11:49:35;0.90;;;0.79;;
66371;SDS011;53168;51.146;17.120;2024-03-29T11:52:09;0.80;;;0.72;;
66371;SDS011;53168;51.146;17.120;2024-03-29T11:54:45;0.75;;;0.67;;
66371;SDS011;53168;51.146;17.120;2024-03-29T11:57:20;0.83;;;0.75;;
66371;SDS011;53168;51.146;17.120;2024-03-29T11:59:54;1.03;;;0.95;;
66371;SDS011;53168;51.146;17.120;2024-03-29T12:02:28;0.86;;;0.79;;
66371;SDS011;53168;51.146;17.120;2024-03-29T12:05:06;0.82;;;0.74;;
66371;SDS011;53168;51.146;17.120;2024-03-29T12:07:42;0.84;;;0.76;;
66371;SDS011;53168;51.146;17.120;2024-03-29T12:10:18;0.87;;;0.79;;
66371;SDS011;53168;51.146;17.120;2024-03-29T12:12:52;1.12;;;0.99;;
66371;SDS011;53168;51.146;17.120;2024-03-29T12:15:28;0.95;;;0.83;;
66371;SDS011;53168;51.146;17.120;2024-03-29T12:18:03;0.77;;;0.67;;
66371;SDS011;53168;51.146;17.120;2024-03-29T12:20:38;0.93;;;0.82;;
66371;SDS011;53168;51.146;17.120;2024-03-29T12:23:16;0.80;;;0.70;;
66371;SDS011;53168;51.146;17.120;2024-03-29T12:25:53;0.73;;;0.65;;
66371;SDS011;53168;51.146;17.120;2024-03-29T12:28:29;0.76;;;0.68;;
66371;SDS011;53168;51.146;17.120;2024-03-29T12:31:03;0.61;;;0.56;;
66371;SDS011;53168;51.146;17.120;2024-03-29T12:33:50;0.73;;;0.67;;
66371;SDS011;53168;51.146;17.120;2024-03-29T12:36:25;0.75;;;0.70;;
66371;SDS011;53168;51.146;17.120;2024-03-29T12:39:02;0.68;;;0.64;;
66371;SDS011;53168;51.146;17.120;2024-03-29T12:41:37;0.68;;;0.64;;
66371;SDS011;53168;51.146;17.120;2024-03-29T12:44:13;0.60;;;0.57;;
66371;SDS011;53168;51.146;17.120;2024-03-29T12:46:47;0.63;;;0.59;;
66371;SDS011;53168;51.146;17.120;2024-03-29T12:49:22;0.64;;;0.61;;
66371;SDS011;53168;51.146;17.120;2024-03-29T12:51:57;0.62;;;0.59;;
66371;SDS011;53168;51.146;17.120;2024-03-29T12:54:31;0.56;;;0.54;;
66371;SDS011;53168;51.146;17.120;2024-03-29T12:57:06;0.72;;;0.71;;
66371;SDS011;53168;51.146;17.120;2024-03-29T12:59:40;0.78;;;0.76;;
66371;SDS011;53168;51.146;17.120;2024-03-29T13:02:14;0.96;;;0.93;;
66371;SDS011;53168;51.146;17.120;2024-03-29T13:04:49;1.17;;;1.14;;
66371;SDS011;53168;51.146;17.120;2024-03-29T13:07:24;0.90;;;0.87;;
66371;SDS011;53168;51.146;17.120;2024-03-29T13:09:58;0.73;;;0.70;;
66371;SDS011;53168;51.146;17.120;2024-03-29T13:12:39;1.04;;;0.99;;
66371;SDS011;53168;51.146;17.120;2024-03-29T13:15:18;1.04;;;1.00;;
66371;SDS011;53168;51.146;17.120;2024-03-29T13:17:56;0.92;;;0.89;;
66371;SDS011;53168;51.146;17.120;2024-03-29T13:20:36;0.82;;;0.78;;
66371;SDS011;53168;51.146;17.120;2024-03-29T13:23:12;0.69;;;0.68;;
66371;SDS011;53168;51.146;17.120;2024-03-29T13:25:47;0.63;;;0.63;;
66371;SDS011;53168;51.146;17.120;2024-03-29T13:28:24;0.70;;;0.70;;
66371;SDS011;53168;51.146;17.120;2024-03-29T13:30:58;0.93;;;0.93;;
66371;SDS011;53168;51.146;17.120;2024-03-29T13:33:33;0.78;;;0.78;;
66371;SDS011;53168;51.146;17.120;2024-03-29T13:36:08;0.59;;;0.59;;
66371;SDS011;53168;51.146;17.120;2024-03-29T13:38:42;0.74;;;0.74;;
66371;SDS011;53168;51.146;17.120;2024-03-29T13:41:29;0.83;;;0.82;;
66371;SDS011;53168;51.146;17.120;2024-03-29T13:44:08;1.01;;;0.99;;
66371;SDS011;53168;51.146;17.120;2024-03-29T13:46:47;0.69;;;0.68;;
66371;SDS011;53168;51.146;17.120;2024-03-29T13:49:23;0.59;;;0.59;;
66371;SDS011;53168;51.146;17.120;2024-03-29T13:52:02;0.64;;;0.64;;
66371;SDS011;53168;51.146;17.120;2024-03-29T13:54:37;0.70;;;0.70;;
66371;SDS011;53168;51.146;17.120;2024-03-29T13:57:18;0.92;;;0.92;;
66371;SDS011;53168;51.146;17.120;2024-03-29T13:59:53;0.99;;;0.99;;
66371;SDS011;53168;51.146;17.120;2024-03-29T14:02:29;0.95;;;0.94;;
66371;SDS011;53168;51.146;17.120;2024-03-29T14:05:04;1.12;;;1.09;;
66371;SDS011;53168;51.146;17.120;2024-03-29T14:07:40;0.87;;;0.84;;
66371;SDS011;53168;51.146;17.120;2024-03-29T14:10:14;0.79;;;0.76;;
66371;SDS011;53168;51.146;17.120;2024-03-29T14:12:50;0.94;;;0.92;;
66371;SDS011;53168;51.146;17.120;2024-03-29T14:15:26;0.82;;;0.80;;
66371;SDS011;53168;51.146;17.120;2024-03-29T14:18:02;0.97;;;0.95;;
66371;SDS011;53168;51.146;17.120;2024-03-29T14:20:38;0.89;;;0.88;;
66371;SDS011;53168;51.146;17.120;2024-03-29T14:23:13;0.74;;;0.74;;
66371;SDS011;53168;51.146;17.120;2024-03-29T14:25:51;0.68;;;0.68;;
66371;SDS011;53168;51.146;17.120;2024-03-29T14:28:26;0.70;;;0.70;;
66371;SDS011;53168;51.146;17.120;2024-03-29T14:31:01;0.89;;;0.89;;
66371;SDS011;53168;51.146;17.120;2024-03-29T14:33:38;0.79;;;0.79;;
66371;SDS011;53168;51.146;17.120;2024-03-29T14:36:14;0.87;;;0.87;;
66371;SDS011;53168;51.146;17.120;2024-03-29T14:38:49;0.85;;;0.84;;
66371;SDS011;53168;51.146;17.120;2024-03-29T14:41:36;0.65;;;0.65;;
66371;SDS011;53168;51.146;17.120;2024-03-29T14:44:11;0.62;;;0.62;;
66371;SDS011;53168;51.146;17.120;2024-03-29T14:46:46;0.67;;;0.67;;
66371;SDS011;53168;51.146;17.120;2024-03-29T14:49:22;0.72;;;0.72;;
66371;SDS011;53168;51.146;17.120;2024-03-29T14:51:57;0.66;;;0.66;;
66371;SDS011;53168;51.146;17.120;2024-03-29T14:54:32;0.80;;;0.80;;
66371;SDS011;53168;51.146;17.120;2024-03-29T14:57:06;0.81;;;0.81;;
66371;SDS011;53168;51.146;17.120;2024-03-29T15:12:00;0.67;;;0.67;;
66371;SDS011;53168;51.146;17.120;2024-03-29T15:14:38;0.88;;;0.88;;
66371;SDS011;53168;51.146;17.120;2024-03-29T15:17:11;0.84;;;0.84;;
66371;SDS011;53168;51.146;17.120;2024-03-29T15:19:47;0.73;;;0.73;;
66371;SDS011;53168;51.146;17.120;2024-03-29T15:22:42;0.65;;;0.65;;
66371;SDS011;53168;51.146;17.120;2024-03-29T15:25:25;0.80;;;0.80;;
66371;SDS011;53168;51.146;17.120;2024-03-29T15:27:59;0.78;;;0.77;;
66371;SDS011;53168;51.146;17.120;2024-03-29T15:30:53;0.87;;;0.87;;
66371;SDS011;53168;51.146;17.120;2024-03-29T15:33:29;0.98;;;0.98;;
66371;SDS011;53168;51.146;17.120;2024-03-29T15:48:53;1.15;;;1.08;;
66371;SDS011;53168;51.146;17.120;2024-03-29T15:51:27;1.10;;;1.09;;
66371;SDS011;53168;51.146;17.120;2024-03-29T15:54:02;1.28;;;1.27;;
66371;SDS011;53168;51.146;17.120;2024-03-29T15:56:45;1.35;;;1.32;;
66371;SDS011;53168;51.146;17.120;2024-03-29T15:59:24;0.99;;;0.97;;
66371;SDS011;53168;51.146;17.120;2024-03-29T16:01:59;0.96;;;0.95;;
66371;SDS011;53168;51.146;17.120;2024-03-29T16:04:37;1.02;;;1.02;;
66371;SDS011;53168;51.146;17.120;2024-03-29T16:07:11;1.22;;;1.22;;
66371;SDS011;53168;51.146;17.120;2024-03-29T16:09:47;1.28;;;1.27;;
66371;SDS011;53168;51.146;17.120;2024-03-29T16:12:24;1.14;;;1.11;;
66371;SDS011;53168;51.146;17.120;2024-03-29T16:14:58;1.17;;;1.14;;
66371;SDS011;53168;51.146;17.120;2024-03-29T16:17:32;1.15;;;1.12;;
66371;SDS011;53168;51.146;17.120;2024-03-29T16:20:09;1.41;;;1.37;;
66371;SDS011;53168;51.146;17.120;2024-03-29T16:22:45;1.42;;;1.39;;
66371;SDS011;53168;51.146;17.120;2024-03-29T16:25:21;1.35;;;1.32;;
66371;SDS011;53168;51.146;17.120;2024-03-29T16:27:55;1.40;;;1.37;;
66371;SDS011;53168;51.146;17.120;2024-03-29T16:30:30;1.60;;;1.55;;
66371;SDS011;53168;51.146;17.120;2024-03-29T16:33:04;1.43;;;1.40;;
66371;SDS011;53168;51.146;17.120;2024-03-29T16:35:40;1.52;;;1.51;;
66371;SDS011;53168;51.146;17.120;2024-03-29T16:38:16;1.59;;;1.56;;
66371;SDS011;53168;51.146;17.120;2024-03-29T16:40:52;1.47;;;1.44;;
66371;SDS011;53168;51.146;17.120;2024-03-29T16:43:28;1.85;;;1.81;;
66371;SDS011;53168;51.146;17.120;2024-03-29T16:46:03;1.90;;;1.82;;
66371;SDS011;53168;51.146;17.120;2024-03-29T16:48:37;2.87;;;2.66;;
66371;SDS011;53168;51.146;17.120;2024-03-29T16:51:11;2.86;;;2.64;;
66371;SDS011;53168;51.146;17.120;2024-03-29T16:53:48;2.60;;;2.43;;
66371;SDS011;53168;51.146;17.120;2024-03-29T16:56:22;2.42;;;2.26;;
66371;SDS011;53168;51.146;17.120;2024-03-29T16:58:57;2.42;;;2.27;;
66371;SDS011;53168;51.146;17.120;2024-03-29T17:01:33;2.28;;;2.17;;
66371;SDS011;53168;51.146;17.120;2024-03-29T17:04:08;2.03;;;1.96;;
66371;SDS011;53168;51.146;17.120;2024-03-29T17:06:42;2.06;;;1.98;;
66371;SDS011;53168;51.146;17.120;2024-03-29T17:12:07;2.04;;;1.95;;
66371;SDS011;53168;51.146;17.120;2024-03-29T17:14:45;1.97;;;1.89;;
66371;SDS011;53168;51.146;17.120;2024-03-29T17:17:21;2.10;;;2.05;;
66371;SDS011;53168;51.146;17.120;2024-03-29T17:19:57;1.97;;;1.90;;
66371;SDS011;53168;51.146;17.120;2024-03-29T17:22:34;2.17;;;2.10;;
66371;SDS011;53168;51.146;17.120;2024-03-29T17:25:08;1.89;;;1.83;;
66371;SDS011;53168;51.146;17.120;2024-03-29T17:27:43;1.76;;;1.70;;
66371;SDS011;53168;51.146;17.120;2024-03-29T17:30:23;1.98;;;1.93;;
66371;SDS011;53168;51.146;17.120;2024-03-29T17:32:57;2.01;;;1.96;;
66371;SDS011;53168;51.146;17.120;2024-03-29T17:35:32;2.08;;;2.01;;
66371;SDS011;53168;51.146;17.120;2024-03-29T17:38:07;2.64;;;2.57;;
66371;SDS011;53168;51.146;17.120;2024-03-29T17:40:41;2.79;;;2.70;;
66371;SDS011;53168;51.146;17.120;2024-03-29T17:43:16;2.44;;;2.37;;
66371;SDS011;53168;51.146;17.120;2024-03-29T17:45:51;2.35;;;2.29;;
66371;SDS011;53168;51.146;17.120;2024-03-29T17:48:27;2.00;;;1.98;;
66371;SDS011;53168;51.146;17.120;2024-03-29T17:51:04;2.19;;;2.11;;
66371;SDS011;53168;51.146;17.120;2024-03-29T18:10:59;2.57;;;2.29;;
66371;SDS011;53168;51.146;17.120;2024-03-29T18:13:38;2.34;;;2.11;;
66371;SDS011;53168;51.146;17.120;2024-03-29T18:16:14;2.43;;;2.20;;
66371;SDS011;53168;51.146;17.120;2024-03-29T18:18:50;2.63;;;2.39;;
66371;SDS011;53168;51.146;17.120;2024-03-29T18:21:35;3.00;;;2.72;;
66371;SDS011;53168;51.146;17.120;2024-03-29T18:25:34;2.64;;;2.39;;
66371;SDS011;53168;51.146;17.120;2024-03-29T18:32:39;3.77;;;3.49;;
66371;SDS011;53168;51.146;17.120;2024-03-29T18:35:38;3.11;;;2.93;;
66371;SDS011;53168;51.146;17.120;2024-03-29T18:38:14;2.90;;;2.79;;
66371;SDS011;53168;51.146;17.120;2024-03-29T18:40:48;2.92;;;2.83;;
66371;SDS011;53168;51.146;17.120;2024-03-29T18:43:24;3.61;;;3.41;;
66371;SDS011;53168;51.146;17.120;2024-03-29T18:46:03;4.12;;;3.82;;
66371;SDS011;53168;51.146;17.120;2024-03-29T18:48:38;4.11;;;3.71;;
66371;SDS011;53168;51.146;17.120;2024-03-29T18:51:13;4.54;;;4.09;;
66371;SDS011;53168;51.146;17.120;2024-03-29T18:56:35;4.56;;;4.24;;
66371;SDS011;53168;51.146;17.120;2024-03-29T18:59:08;3.62;;;3.35;;
66371;SDS011;53168;51.146;17.120;2024-03-29T19:01:47;4.53;;;4.19;;
66371;SDS011;53168;51.146;17.120;2024-03-29T19:04:29;5.23;;;4.99;;
66371;SDS011;53168;51.146;17.120;2024-03-29T19:07:04;6.73;;;6.50;;
66371;SDS011;53168;51.146;17.120;2024-03-29T19:09:39;6.66;;;6.53;;
66371;SDS011;53168;51.146;17.120;2024-03-29T19:12:13;6.84;;;6.60;;
66371;SDS011;53168;51.146;17.120;2024-03-29T19:14:49;6.84;;;6.63;;
66371;SDS011;53168;51.146;17.120;2024-03-29T19:17:26;7.24;;;7.07;;
66371;SDS011;53168;51.146;17.120;2024-03-29T19:20:00;7.48;;;7.30;;
66371;SDS011;53168;51.146;17.120;2024-03-29T19:22:42;8.22;;;8.05;;
66371;SDS011;53168;51.146;17.120;2024-03-29T19:25:17;8.47;;;8.29;;
66371;SDS011;53168;51.146;17.120;2024-03-29T19:27:51;7.92;;;7.84;;
66371;SDS011;53168;51.146;17.120;2024-03-29T19:30:27;8.27;;;8.24;;
66371;SDS011;53168;51.146;17.120;2024-03-29T19:33:11;7.67;;;7.63;;
66371;SDS011;53168;51.146;17.120;2024-03-29T19:35:44;6.12;;;6.12;;
66371;SDS011;53168;51.146;17.120;2024-03-29T19:38:19;6.17;;;6.14;;
66371;SDS011;53168;51.146;17.120;2024-03-29T19:40:53;6.33;;;6.20;;
66371;SDS011;53168;51.146;17.120;2024-03-29T19:43:30;6.06;;;5.94;;
66371;SDS011;53168;51.146;17.120;2024-03-29T19:46:46;7.37;;;7.36;;
66371;SDS011;53168;51.146;17.120;2024-03-29T19:49:16;7.15;;;7.10;;
66371;SDS011;53168;51.146;17.120;2024-03-29T19:51:47;7.25;;;7.24;;
66371;SDS011;53168;51.146;17.120;2024-03-29T19:54:22;7.57;;;7.47;;
66371;SDS011;53168;51.146;17.120;2024-03-29T19:56:57;7.87;;;7.76;;
66371;SDS011;53168;51.146;17.120;2024-03-29T19:59:27;7.56;;;7.43;;
66371;SDS011;53168;51.146;17.120;2024-03-29T20:02:03;7.50;;;7.46;;
66371;SDS011;53168;51.146;17.120;2024-03-29T20:04:36;7.51;;;7.48;;
66371;SDS011;53168;51.146;17.120;2024-03-29T20:07:07;6.11;;;6.06;;
66371;SDS011;53168;51.146;17.120;2024-03-29T20:09:38;5.65;;;5.60;;
66371;SDS011;53168;51.146;17.120;2024-03-29T20:12:08;5.71;;;5.64;;
66371;SDS011;53168;51.146;17.120;2024-03-29T20:14:40;5.13;;;5.08;;
66371;SDS011;53168;51.146;17.120;2024-03-29T20:17:11;5.57;;;5.48;;
66371;SDS011;53168;51.146;17.120;2024-03-29T20:19:43;6.18;;;6.02;;
66371;SDS011;53168;51.146;17.120;2024-03-29T20:22:13;6.21;;;5.98;;
66371;SDS011;53168;51.146;17.120;2024-03-29T20:24:44;4.46;;;4.29;;
66371;SDS011;53168;51.146;17.120;2024-03-29T20:27:15;5.78;;;5.59;;
66371;SDS011;53168;51.146;17.120;2024-03-29T20:29:46;6.41;;;6.24;;
66371;SDS011;53168;51.146;17.120;2024-03-29T20:32:17;6.38;;;6.29;;
66371;SDS011;53168;51.146;17.120;2024-03-29T20:34:48;6.47;;;6.42;;
66371;SDS011;53168;51.146;17.120;2024-03-29T20:37:21;5.98;;;5.86;;
66371;SDS011;53168;51.146;17.120;2024-03-29T20:42:46;8.55;;;7.95;;
66371;SDS011;53168;51.146;17.120;2024-03-29T20:45:20;7.87;;;7.61;;
66371;SDS011;53168;51.146;17.120;2024-03-29T20:47:54;7.54;;;7.31;;
66371;SDS011;53168;51.146;17.120;2024-03-29T20:50:31;6.69;;;6.59;;
66371;SDS011;53168;51.146;17.120;2024-03-29T20:53:05;6.21;;;6.10;;
66371;SDS011;53168;51.146;17.120;2024-03-29T20:55:40;6.07;;;5.92;;
66371;SDS011;53168;51.146;17.120;2024-03-29T20:58:14;6.57;;;6.36;;
66371;SDS011;53168;51.146;17.120;2024-03-29T21:00:57;5.66;;;5.58;;
66371;SDS011;53168;51.146;17.120;2024-03-29T21:03:34;6.44;;;6.40;;
66371;SDS011;53168;51.146;17.120;2024-03-29T21:06:36;5.51;;;5.44;;
66371;SDS011;53168;51.146;17.120;2024-03-29T21:09:10;6.47;;;6.33;;
66371;SDS011;53168;51.146;17.120;2024-03-29T21:11:45;6.87;;;6.66;;
66371;SDS011;53168;51.146;17.120;2024-03-29T21:14:21;7.78;;;7.53;;
66371;SDS011;53168;51.146;17.120;2024-03-29T21:16:56;7.64;;;7.44;;
66371;SDS011;53168;51.146;17.120;2024-03-29T21:19:31;8.26;;;8.23;;
66371;SDS011;53168;51.146;17.120;2024-03-29T21:22:05;10.78;;;10.65;;
66371;SDS011;53168;51.146;17.120;2024-03-29T21:24:40;14.50;;;13.96;;
66371;SDS011;53168;51.146;17.120;2024-03-29T21:27:14;14.80;;;14.37;;
66371;SDS011;53168;51.146;17.120;2024-03-29T21:29:49;13.03;;;12.62;;
66371;SDS011;53168;51.146;17.120;2024-03-29T21:32:29;13.08;;;12.60;;
66371;SDS011;53168;51.146;17.120;2024-03-29T21:35:05;11.16;;;10.76;;
66371;SDS011;53168;51.146;17.120;2024-03-29T21:37:39;10.07;;;9.76;;
66371;SDS011;53168;51.146;17.120;2024-03-29T21:40:14;8.98;;;8.77;;
66371;SDS011;53168;51.146;17.120;2024-03-29T21:42:49;9.57;;;9.33;;
66371;SDS011;53168;51.146;17.120;2024-03-29T21:45:27;11.20;;;10.77;;
66371;SDS011;53168;51.146;17.120;2024-03-29T21:48:07;12.05;;;11.47;;
66371;SDS011;53168;51.146;17.120;2024-03-29T21:50:42;12.38;;;12.00;;
66371;SDS011;53168;51.146;17.120;2024-03-29T21:53:18;11.35;;;10.99;;
66371;SDS011;53168;51.146;17.120;2024-03-29T21:55:52;10.64;;;10.34;;
66371;SDS011;53168;51.146;17.120;2024-03-29T21:58:28;10.77;;;10.39;;
66371;SDS011;53168;51.146;17.120;2024-03-29T22:01:19;9.93;;;9.56;;
66371;SDS011;53168;51.146;17.120;2024-03-29T22:03:54;10.09;;;9.81;;
66371;SDS011;53168;51.146;17.120;2024-03-29T22:06:28;8.50;;;8.33;;
66371;SDS011;53168;51.146;17.120;2024-03-29T22:09:03;7.89;;;7.76;;
66371;SDS011;53168;51.146;17.120;2024-03-29T22:11:40;7.41;;;7.31;;
66371;SDS011;53168;51.146;17.120;2024-03-29T22:14:15;8.08;;;7.74;;
66371;SDS011;53168;51.146;17.120;2024-03-29T22:16:50;7.66;;;7.28;;
66371;SDS011;53168;51.146;17.120;2024-03-29T22:19:26;7.42;;;7.24;;
66371;SDS011;53168;51.146;17.120;2024-03-29T22:22:01;6.90;;;6.62;;
66371;SDS011;53168;51.146;17.120;2024-03-29T22:24:37;7.39;;;7.09;;
66371;SDS011;53168;51.146;17.120;2024-03-29T22:27:11;6.86;;;6.58;;
66371;SDS011;53168;51.146;17.120;2024-03-29T22:29:51;7.18;;;6.86;;
66371;SDS011;53168;51.146;17.120;2024-03-29T22:32:29;6.80;;;6.51;;
66371;SDS011;53168;51.146;17.120;2024-03-29T22:35:07;7.22;;;6.94;;
66371;SDS011;53168;51.146;17.120;2024-03-29T22:37:42;6.41;;;6.26;;
66371;SDS011;53168;51.146;17.120;2024-03-29T22:40:16;6.66;;;6.52;;
66371;SDS011;53168;51.146;17.120;2024-03-29T22:42:52;7.34;;;7.04;;
66371;SDS011;53168;51.146;17.120;2024-03-29T22:45:26;5.60;;;5.43;;
66371;SDS011;53168;51.146;17.120;2024-03-29T22:48:02;6.18;;;6.09;;
66371;SDS011;53168;51.146;17.120;2024-03-29T22:50:39;5.97;;;5.91;;
66371;SDS011;53168;51.146;17.120;2024-03-29T22:53:16;5.42;;;5.29;;
66371;SDS011;53168;51.146;17.120;2024-03-29T22:55:51;5.69;;;5.61;;
66371;SDS011;53168;51.146;17.120;2024-03-29T22:58:26;5.66;;;5.61;;
66371;SDS011;53168;51.146;17.120;2024-03-29T23:01:00;6.91;;;6.69;;
66371;SDS011;53168;51.146;17.120;2024-03-29T23:03:36;6.10;;;5.90;;
66371;SDS011;53168;51.146;17.120;2024-03-29T23:06:12;6.90;;;6.67;;
66371;SDS011;53168;51.146;17.120;2024-03-29T23:08:45;7.21;;;6.81;;
66371;SDS011;53168;51.146;17.120;2024-03-29T23:11:19;7.31;;;7.06;;
66371;SDS011;53168;51.146;17.120;2024-03-29T23:13:54;7.01;;;6.81;;
66371;SDS011;53168;51.146;17.120;2024-03-29T23:16:27;6.28;;;6.12;;
66371;SDS011;53168;51.146;17.120;2024-03-29T23:19:04;5.42;;;5.27;;
66371;SDS011;53168;51.146;17.120;2024-03-29T23:21:38;5.12;;;4.94;;
66371;SDS011;53168;51.146;17.120;2024-03-29T23:24:12;4.94;;;4.85;;
66371;SDS011;53168;51.146;17.120;2024-03-29T23:26:48;4.96;;;4.85;;
66371;SDS011;53168;51.146;17.120;2024-03-29T23:29:24;5.31;;;5.10;;
66371;SDS011;53168;51.146;17.120;2024-03-29T23:31:59;4.91;;;4.74;;